Terminal Aerodrome Forecast
Issued by NWS Charleston, WV

Current Version | Previous Version | Text Only | Print | Product List | Glossary Off
Versions: 1 2 3 4 5 6 7 8 9 10 11 12 13 14 15 16 17 18 19 20 21 22 23 24 25 26

391
FTUS41 KRLX 060251 AAA
TAFBKW
TAF AMD
KBKW 060251Z 0603/0624 30006KT 3SM SHRA BR OVC006
     FM060900 33006KT 5SM SHRA OVC004
     FM061400 33008KT P6SM OVC006
     FM061600 33009G15KT 5SM SHRA OVC013
     FM061800 33011G18KT 5SM SHRA OVC030=

USA.gov is the U.S. government's official web portal to all federal, state and local government web resources and services.